sensor_id;sensor_type;location;lat;lon;timestamp;P1;durP1;ratioP1;P2;durP2;ratioP2
54705;SDS011;40603;48.774;8.916;2022-08-19T00:00:15;698.10;;;629.92;;
54705;SDS011;40603;48.774;8.916;2022-08-19T00:02:42;698.00;;;630.70;;
54705;SDS011;40603;48.774;8.916;2022-08-19T00:05:08;643.97;;;580.38;;
54705;SDS011;40603;48.774;8.916;2022-08-19T00:07:34;706.00;;;638.30;;
54705;SDS011;40603;48.774;8.916;2022-08-19T00:09:59;697.88;;;628.97;;
54705;SDS011;40603;48.774;8.916;2022-08-19T00:12:25;697.17;;;626.92;;
54705;SDS011;40603;48.774;8.916;2022-08-19T00:14:50;719.20;;;648.80;;
54705;SDS011;40603;48.774;8.916;2022-08-19T00:17:17;684.65;;;616.50;;
54705;SDS011;40603;48.774;8.916;2022-08-19T00:19:43;693.78;;;625.83;;
54705;SDS011;40603;48.774;8.916;2022-08-19T00:22:08;729.30;;;657.85;;
54705;SDS011;40603;48.774;8.916;2022-08-19T00:24:33;726.95;;;653.58;;
54705;SDS011;40603;48.774;8.916;2022-08-19T00:27:00;685.25;;;616.38;;
54705;SDS011;40603;48.774;8.916;2022-08-19T00:29:26;759.90;;;681.63;;
54705;SDS011;40603;48.774;8.916;2022-08-19T00:31:52;708.92;;;637.03;;
54705;SDS011;40603;48.774;8.916;2022-08-19T00:34:21;697.53;;;628.33;;
54705;SDS011;40603;48.774;8.916;2022-08-19T00:36:48;690.92;;;622.15;;
54705;SDS011;40603;48.774;8.916;2022-08-19T00:39:14;710.25;;;638.55;;
54705;SDS011;40603;48.774;8.916;2022-08-19T00:41:40;725.55;;;653.67;;
54705;SDS011;40603;48.774;8.916;2022-08-19T00:44:10;709.58;;;637.28;;
54705;SDS011;40603;48.774;8.916;2022-08-19T00:46:38;708.58;;;638.65;;
54705;SDS011;40603;48.774;8.916;2022-08-19T00:49:06;700.45;;;629.90;;
54705;SDS011;40603;48.774;8.916;2022-08-19T00:51:39;704.05;;;635.40;;
54705;SDS011;40603;48.774;8.916;2022-08-19T00:54:06;703.33;;;631.25;;
54705;SDS011;40603;48.774;8.916;2022-08-19T00:56:31;674.08;;;607.50;;
54705;SDS011;40603;48.774;8.916;2022-08-19T00:58:58;693.85;;;625.15;;
54705;SDS011;40603;48.774;8.916;2022-08-19T01:01:23;703.33;;;631.92;;
54705;SDS011;40603;48.774;8.916;2022-08-19T01:03:49;680.78;;;613.50;;
54705;SDS011;40603;48.774;8.916;2022-08-19T01:06:14;704.97;;;632.67;;
54705;SDS011;40603;48.774;8.916;2022-08-19T01:08:40;710.80;;;639.67;;
54705;SDS011;40603;48.774;8.916;2022-08-19T01:11:05;712.83;;;639.30;;
54705;SDS011;40603;48.774;8.916;2022-08-19T01:13:32;695.58;;;624.13;;
54705;SDS011;40603;48.774;8.916;2022-08-19T01:16:00;714.17;;;640.83;;
54705;SDS011;40603;48.774;8.916;2022-08-19T01:18:28;702.25;;;629.28;;
54705;SDS011;40603;48.774;8.916;2022-08-19T01:20:54;741.83;;;666.25;;
54705;SDS011;40603;48.774;8.916;2022-08-19T01:23:22;726.70;;;652.40;;
54705;SDS011;40603;48.774;8.916;2022-08-19T01:26:07;725.33;;;652.00;;
54705;SDS011;40603;48.774;8.916;2022-08-19T01:28:35;777.33;;;696.17;;
54705;SDS011;40603;48.774;8.916;2022-08-19T01:31:00;711.97;;;638.53;;
54705;SDS011;40603;48.774;8.916;2022-08-19T01:33:26;725.65;;;651.58;;
54705;SDS011;40603;48.774;8.916;2022-08-19T01:35:51;714.47;;;644.40;;
54705;SDS011;40603;48.774;8.916;2022-08-19T01:38:22;729.80;;;656.08;;
54705;SDS011;40603;48.774;8.916;2022-08-19T01:40:49;780.53;;;701.08;;
54705;SDS011;40603;48.774;8.916;2022-08-19T01:43:15;756.70;;;677.72;;
54705;SDS011;40603;48.774;8.916;2022-08-19T01:45:41;774.47;;;695.30;;
54705;SDS011;40603;48.774;8.916;2022-08-19T01:48:07;791.38;;;710.53;;
54705;SDS011;40603;48.774;8.916;2022-08-19T01:50:33;810.13;;;723.92;;
54705;SDS011;40603;48.774;8.916;2022-08-19T01:53:00;822.00;;;734.40;;
54705;SDS011;40603;48.774;8.916;2022-08-19T01:55:26;812.47;;;727.85;;
54705;SDS011;40603;48.774;8.916;2022-08-19T01:57:53;827.90;;;741.45;;
54705;SDS011;40603;48.774;8.916;2022-08-19T02:00:22;811.95;;;729.63;;
54705;SDS011;40603;48.774;8.916;2022-08-19T02:02:48;850.33;;;764.08;;
54705;SDS011;40603;48.774;8.916;2022-08-19T02:05:14;886.17;;;796.30;;
54705;SDS011;40603;48.774;8.916;2022-08-19T02:07:42;869.15;;;779.50;;
54705;SDS011;40603;48.774;8.916;2022-08-19T02:10:10;836.55;;;747.67;;
54705;SDS011;40603;48.774;8.916;2022-08-19T02:12:37;859.42;;;767.35;;
54705;SDS011;40603;48.774;8.916;2022-08-19T02:15:03;828.20;;;739.50;;
54705;SDS011;40603;48.774;8.916;2022-08-19T02:17:29;873.83;;;781.47;;
54705;SDS011;40603;48.774;8.916;2022-08-19T02:19:55;834.33;;;744.00;;
54705;SDS011;40603;48.774;8.916;2022-08-19T02:22:21;869.65;;;778.00;;
54705;SDS011;40603;48.774;8.916;2022-08-19T02:24:47;862.65;;;769.83;;
54705;SDS011;40603;48.774;8.916;2022-08-19T02:27:12;869.88;;;775.50;;
54705;SDS011;40603;48.774;8.916;2022-08-19T02:29:38;895.97;;;800.25;;
54705;SDS011;40603;48.774;8.916;2022-08-19T02:32:04;887.80;;;793.45;;
54705;SDS011;40603;48.774;8.916;2022-08-19T02:34:29;884.75;;;793.13;;
54705;SDS011;40603;48.774;8.916;2022-08-19T02:36:54;881.88;;;788.95;;
54705;SDS011;40603;48.774;8.916;2022-08-19T02:39:20;864.83;;;774.92;;
54705;SDS011;40603;48.774;8.916;2022-08-19T02:41:45;874.42;;;786.63;;
54705;SDS011;40603;48.774;8.916;2022-08-19T02:44:10;856.15;;;767.60;;
54705;SDS011;40603;48.774;8.916;2022-08-19T02:46:36;879.28;;;789.78;;
54705;SDS011;40603;48.774;8.916;2022-08-19T02:49:06;888.53;;;796.13;;
54705;SDS011;40603;48.774;8.916;2022-08-19T02:51:33;862.35;;;771.45;;
54705;SDS011;40603;48.774;8.916;2022-08-19T02:54:04;882.22;;;790.88;;
54705;SDS011;40603;48.774;8.916;2022-08-19T02:56:31;869.50;;;781.30;;
54705;SDS011;40603;48.774;8.916;2022-08-19T02:58:57;884.63;;;794.38;;
54705;SDS011;40603;48.774;8.916;2022-08-19T03:01:23;927.30;;;835.47;;
54705;SDS011;40603;48.774;8.916;2022-08-19T03:03:50;899.80;;;809.45;;
54705;SDS011;40603;48.774;8.916;2022-08-19T03:06:16;931.42;;;840.42;;
54705;SDS011;40603;48.774;8.916;2022-08-19T03:08:42;881.95;;;795.67;;
54705;SDS011;40603;48.774;8.916;2022-08-19T03:11:12;898.00;;;809.88;;
54705;SDS011;40603;48.774;8.916;2022-08-19T03:13:41;912.22;;;821.33;;
54705;SDS011;40603;48.774;8.916;2022-08-19T03:16:08;918.38;;;826.17;;
54705;SDS011;40603;48.774;8.916;2022-08-19T03:18:33;764.95;;;687.28;;
54705;SDS011;40603;48.774;8.916;2022-08-19T03:20:59;892.17;;;799.90;;
54705;SDS011;40603;48.774;8.916;2022-08-19T03:23:25;882.55;;;797.35;;
54705;SDS011;40603;48.774;8.916;2022-08-19T03:25:51;863.90;;;777.63;;
54705;SDS011;40603;48.774;8.916;2022-08-19T03:28:18;818.30;;;741.47;;
54705;SDS011;40603;48.774;8.916;2022-08-19T03:30:54;834.47;;;756.05;;
54705;SDS011;40603;48.774;8.916;2022-08-19T03:33:21;861.78;;;775.50;;
54705;SDS011;40603;48.774;8.916;2022-08-19T03:35:47;872.88;;;786.75;;
54705;SDS011;40603;48.774;8.916;2022-08-19T03:38:12;840.70;;;757.28;;
54705;SDS011;40603;48.774;8.916;2022-08-19T03:40:39;884.08;;;792.70;;
54705;SDS011;40603;48.774;8.916;2022-08-19T03:43:04;877.65;;;789.45;;
54705;SDS011;40603;48.774;8.916;2022-08-19T03:45:30;851.97;;;766.88;;
54705;SDS011;40603;48.774;8.916;2022-08-19T03:47:56;813.22;;;735.58;;
54705;SDS011;40603;48.774;8.916;2022-08-19T03:50:21;841.25;;;756.55;;
54705;SDS011;40603;48.774;8.916;2022-08-19T03:52:48;853.30;;;768.25;;
54705;SDS011;40603;48.774;8.916;2022-08-19T03:55:15;787.08;;;711.30;;
54705;SDS011;40603;48.774;8.916;2022-08-19T03:57:40;776.30;;;703.17;;
54705;SDS011;40603;48.774;8.916;2022-08-19T04:00:06;821.45;;;742.25;;
54705;SDS011;40603;48.774;8.916;2022-08-19T04:02:32;823.40;;;743.90;;
54705;SDS011;40603;48.774;8.916;2022-08-19T04:04:57;830.13;;;747.97;;
54705;SDS011;40603;48.774;8.916;2022-08-19T04:07:23;819.13;;;740.03;;
54705;SDS011;40603;48.774;8.916;2022-08-19T04:09:48;821.17;;;743.03;;
54705;SDS011;40603;48.774;8.916;2022-08-19T04:12:14;807.55;;;729.55;;
54705;SDS011;40603;48.774;8.916;2022-08-19T04:14:39;808.63;;;731.65;;
54705;SDS011;40603;48.774;8.916;2022-08-19T04:17:05;755.03;;;682.75;;
54705;SDS011;40603;48.774;8.916;2022-08-19T04:19:31;794.78;;;718.15;;
54705;SDS011;40603;48.774;8.916;2022-08-19T04:21:57;795.55;;;721.45;;
54705;SDS011;40603;48.774;8.916;2022-08-19T04:24:23;797.10;;;719.08;;
54705;SDS011;40603;48.774;8.916;2022-08-19T04:26:48;801.47;;;724.75;;
54705;SDS011;40603;48.774;8.916;2022-08-19T04:29:18;798.05;;;721.75;;
54705;SDS011;40603;48.774;8.916;2022-08-19T04:31:49;791.67;;;716.00;;
54705;SDS011;40603;48.774;8.916;2022-08-19T04:34:15;767.58;;;693.40;;
54705;SDS011;40603;48.774;8.916;2022-08-19T04:36:43;691.20;;;625.65;;
54705;SDS011;40603;48.774;8.916;2022-08-19T04:39:14;765.33;;;691.90;;
54705;SDS011;40603;48.774;8.916;2022-08-19T04:41:41;775.20;;;699.50;;
54705;SDS011;40603;48.774;8.916;2022-08-19T04:44:25;770.67;;;696.38;;
54705;SDS011;40603;48.774;8.916;2022-08-19T04:46:51;742.35;;;673.40;;
54705;SDS011;40603;48.774;8.916;2022-08-19T04:49:17;734.50;;;664.92;;
54705;SDS011;40603;48.774;8.916;2022-08-19T04:51:44;582.60;;;525.78;;
54705;SDS011;40603;48.774;8.916;2022-08-19T04:54:12;640.28;;;580.35;;
54705;SDS011;40603;48.774;8.916;2022-08-19T04:56:38;732.05;;;661.20;;
54705;SDS011;40603;48.774;8.916;2022-08-19T04:59:04;694.72;;;630.20;;
54705;SDS011;40603;48.774;8.916;2022-08-19T05:01:30;704.30;;;635.15;;
54705;SDS011;40603;48.774;8.916;2022-08-19T05:03:57;611.70;;;553.55;;
54705;SDS011;40603;48.774;8.916;2022-08-19T05:06:23;751.05;;;679.22;;
54705;SDS011;40603;48.774;8.916;2022-08-19T05:08:49;671.90;;;608.65;;
54705;SDS011;40603;48.774;8.916;2022-08-19T05:11:25;621.00;;;564.05;;
54705;SDS011;40603;48.774;8.916;2022-08-19T05:13:51;711.45;;;643.03;;
54705;SDS011;40603;48.774;8.916;2022-08-19T05:16:18;709.67;;;640.97;;
54705;SDS011;40603;48.774;8.916;2022-08-19T05:18:44;660.90;;;595.30;;
54705;SDS011;40603;48.774;8.916;2022-08-19T05:21:28;738.00;;;664.88;;
54705;SDS011;40603;48.774;8.916;2022-08-19T05:24:13;765.33;;;687.95;;
54705;SDS011;40603;48.774;8.916;2022-08-19T05:26:40;752.30;;;677.90;;
54705;SDS011;40603;48.774;8.916;2022-08-19T05:29:07;709.00;;;642.13;;
54705;SDS011;40603;48.774;8.916;2022-08-19T05:31:35;658.40;;;595.30;;
54705;SDS011;40603;48.774;8.916;2022-08-19T05:34:01;693.72;;;627.95;;
54705;SDS011;40603;48.774;8.916;2022-08-19T05:36:28;675.88;;;611.97;;
54705;SDS011;40603;48.774;8.916;2022-08-19T05:38:59;659.50;;;598.70;;
54705;SDS011;40603;48.774;8.916;2022-08-19T05:41:24;644.63;;;584.25;;
54705;SDS011;40603;48.774;8.916;2022-08-19T05:43:54;619.30;;;560.40;;
54705;SDS011;40603;48.774;8.916;2022-08-19T05:46:20;626.83;;;567.30;;
54705;SDS011;40603;48.774;8.916;2022-08-19T05:48:47;675.83;;;609.83;;
54705;SDS011;40603;48.774;8.916;2022-08-19T05:51:13;712.80;;;644.67;;
54705;SDS011;40603;48.774;8.916;2022-08-19T05:53:39;652.90;;;591.25;;
54705;SDS011;40603;48.774;8.916;2022-08-19T05:56:05;603.97;;;547.22;;
54705;SDS011;40603;48.774;8.916;2022-08-19T05:58:31;743.67;;;671.03;;
54705;SDS011;40603;48.774;8.916;2022-08-19T06:00:57;660.92;;;597.22;;
54705;SDS011;40603;48.774;8.916;2022-08-19T06:03:23;773.97;;;699.78;;
54705;SDS011;40603;48.774;8.916;2022-08-19T06:05:49;727.88;;;656.17;;
54705;SDS011;40603;48.774;8.916;2022-08-19T06:08:14;860.28;;;770.38;;
54705;SDS011;40603;48.774;8.916;2022-08-19T06:10:39;713.38;;;648.22;;
54705;SDS011;40603;48.774;8.916;2022-08-19T06:13:04;763.40;;;690.55;;
54705;SDS011;40603;48.774;8.916;2022-08-19T06:15:30;681.40;;;620.55;;
54705;SDS011;40603;48.774;8.916;2022-08-19T06:17:56;761.05;;;687.53;;
54705;SDS011;40603;48.774;8.916;2022-08-19T06:20:21;757.10;;;682.92;;
54705;SDS011;40603;48.774;8.916;2022-08-19T06:22:47;776.35;;;698.17;;
54705;SDS011;40603;48.774;8.916;2022-08-19T06:25:16;834.88;;;749.65;;
54705;SDS011;40603;48.774;8.916;2022-08-19T06:27:42;848.00;;;764.63;;
54705;SDS011;40603;48.774;8.916;2022-08-19T06:30:08;840.75;;;755.55;;
54705;SDS011;40603;48.774;8.916;2022-08-19T06:32:33;831.20;;;747.78;;
54705;SDS011;40603;48.774;8.916;2022-08-19T06:34:58;843.50;;;759.13;;
54705;SDS011;40603;48.774;8.916;2022-08-19T06:37:24;863.55;;;776.80;;
54705;SDS011;40603;48.774;8.916;2022-08-19T06:39:50;836.70;;;754.55;;
54705;SDS011;40603;48.774;8.916;2022-08-19T06:42:15;913.60;;;817.22;;
54705;SDS011;40603;48.774;8.916;2022-08-19T06:44:43;849.35;;;762.45;;
54705;SDS011;40603;48.774;8.916;2022-08-19T06:47:12;845.47;;;761.55;;
54705;SDS011;40603;48.774;8.916;2022-08-19T06:49:39;883.83;;;795.20;;
54705;SDS011;40603;48.774;8.916;2022-08-19T06:52:04;904.13;;;811.70;;
54705;SDS011;40603;48.774;8.916;2022-08-19T06:54:30;898.28;;;802.80;;
54705;SDS011;40603;48.774;8.916;2022-08-19T06:56:59;811.70;;;734.60;;
54705;SDS011;40603;48.774;8.916;2022-08-19T06:59:27;754.28;;;684.53;;
54705;SDS011;40603;48.774;8.916;2022-08-19T07:01:54;746.65;;;672.08;;
54705;SDS011;40603;48.774;8.916;2022-08-19T07:04:28;796.70;;;719.75;;
54705;SDS011;40603;48.774;8.916;2022-08-19T07:06:57;848.17;;;760.50;;
54705;SDS011;40603;48.774;8.916;2022-08-19T07:09:24;892.58;;;799.92;;
54705;SDS011;40603;48.774;8.916;2022-08-19T07:11:50;920.13;;;813.72;;
54705;SDS011;40603;48.774;8.916;2022-08-19T07:14:18;898.78;;;805.95;;
54705;SDS011;40603;48.774;8.916;2022-08-19T07:16:45;933.08;;;832.67;;
54705;SDS011;40603;48.774;8.916;2022-08-19T07:19:12;915.63;;;802.30;;
54705;SDS011;40603;48.774;8.916;2022-08-19T07:21:38;935.28;;;827.45;;
54705;SDS011;40603;48.774;8.916;2022-08-19T07:24:03;949.13;;;821.15;;
54705;SDS011;40603;48.774;8.916;2022-08-19T07:26:30;933.90;;;811.97;;
54705;SDS011;40603;48.774;8.916;2022-08-19T07:28:57;974.63;;;818.63;;
54705;SDS011;40603;48.774;8.916;2022-08-19T07:31:24;938.05;;;806.28;;
54705;SDS011;40603;48.774;8.916;2022-08-19T07:33:51;968.70;;;799.97;;
54705;SDS011;40603;48.774;8.916;2022-08-19T07:36:19;995.53;;;795.63;;
54705;SDS011;40603;48.774;8.916;2022-08-19T07:38:46;897.40;;;780.97;;
54705;SDS011;40603;48.774;8.916;2022-08-19T07:41:14;885.22;;;789.22;;
54705;SDS011;40603;48.774;8.916;2022-08-19T07:43:44;897.10;;;790.88;;
54705;SDS011;40603;48.774;8.916;2022-08-19T07:46:11;956.95;;;823.58;;
54705;SDS011;40603;48.774;8.916;2022-08-19T07:48:38;850.03;;;753.05;;
54705;SDS011;40603;48.774;8.916;2022-08-19T07:51:05;870.53;;;747.90;;
54705;SDS011;40603;48.774;8.916;2022-08-19T07:53:33;939.10;;;774.63;;
54705;SDS011;40603;48.774;8.916;2022-08-19T07:55:59;916.08;;;782.10;;
54705;SDS011;40603;48.774;8.916;2022-08-19T07:58:28;867.00;;;762.20;;
54705;SDS011;40603;48.774;8.916;2022-08-19T08:00:54;898.25;;;761.67;;
54705;SDS011;40603;48.774;8.916;2022-08-19T08:03:21;876.10;;;764.92;;
54705;SDS011;40603;48.774;8.916;2022-08-19T08:06:07;837.85;;;711.13;;
54705;SDS011;40603;48.774;8.916;2022-08-19T08:08:51;810.53;;;721.13;;
54705;SDS011;40603;48.774;8.916;2022-08-19T08:11:35;850.05;;;750.22;;
54705;SDS011;40603;48.774;8.916;2022-08-19T08:14:01;849.45;;;732.05;;
54705;SDS011;40603;48.774;8.916;2022-08-19T08:16:26;900.03;;;764.55;;
54705;SDS011;40603;48.774;8.916;2022-08-19T08:18:54;814.80;;;692.55;;
54705;SDS011;40603;48.774;8.916;2022-08-19T08:21:20;850.25;;;753.50;;
54705;SDS011;40603;48.774;8.916;2022-08-19T08:23:45;805.55;;;718.03;;
54705;SDS011;40603;48.774;8.916;2022-08-19T08:26:10;910.78;;;780.03;;
54705;SDS011;40603;48.774;8.916;2022-08-19T08:28:37;860.65;;;739.40;;
54705;SDS011;40603;48.774;8.916;2022-08-19T08:31:03;905.30;;;771.80;;
54705;SDS011;40603;48.774;8.916;2022-08-19T08:33:29;910.67;;;776.70;;
54705;SDS011;40603;48.774;8.916;2022-08-19T08:35:55;855.47;;;738.40;;
54705;SDS011;40603;48.774;8.916;2022-08-19T08:38:20;859.80;;;766.10;;
54705;SDS011;40603;48.774;8.916;2022-08-19T08:41:00;851.05;;;753.78;;
54705;SDS011;40603;48.774;8.916;2022-08-19T08:43:38;755.53;;;674.38;;
54705;SDS011;40603;48.774;8.916;2022-08-19T08:46:09;812.50;;;728.47;;
54705;SDS011;40603;48.774;8.916;2022-08-19T08:48:49;856.10;;;767.88;;
54705;SDS011;40603;48.774;8.916;2022-08-19T08:51:22;752.92;;;678.67;;
54705;SDS011;40603;48.774;8.916;2022-08-19T08:56:16;675.42;;;615.10;;
54705;SDS011;40603;48.774;8.916;2022-08-19T08:58:49;767.20;;;692.78;;
54705;SDS011;40603;48.774;8.916;2022-08-19T09:01:21;712.33;;;643.05;;
54705;SDS011;40603;48.774;8.916;2022-08-19T09:03:47;767.28;;;692.20;;
54705;SDS011;40603;48.774;8.916;2022-08-19T09:06:23;799.47;;;715.20;;
54705;SDS011;40603;48.774;8.916;2022-08-19T09:09:03;846.90;;;757.00;;
54705;SDS011;40603;48.774;8.916;2022-08-19T09:11:41;831.47;;;746.42;;
54705;SDS011;40603;48.774;8.916;2022-08-19T09:14:21;797.42;;;716.22;;
54705;SDS011;40603;48.774;8.916;2022-08-19T09:16:48;841.60;;;754.92;;
54705;SDS011;40603;48.774;8.916;2022-08-19T09:19:14;815.35;;;728.92;;
54705;SDS011;40603;48.774;8.916;2022-08-19T09:21:42;817.35;;;732.92;;
54705;SDS011;40603;48.774;8.916;2022-08-19T09:24:07;773.65;;;693.38;;
54705;SDS011;40603;48.774;8.916;2022-08-19T09:26:33;805.53;;;719.42;;
54705;SDS011;40603;48.774;8.916;2022-08-19T09:28:59;736.08;;;663.33;;
54705;SDS011;40603;48.774;8.916;2022-08-19T09:31:25;755.58;;;678.20;;
54705;SDS011;40603;48.774;8.916;2022-08-19T09:33:52;762.75;;;684.88;;
54705;SDS011;40603;48.774;8.916;2022-08-19T09:36:22;759.85;;;679.95;;
54705;SDS011;40603;48.774;8.916;2022-08-19T09:38:48;733.20;;;658.65;;
54705;SDS011;40603;48.774;8.916;2022-08-19T09:41:15;819.45;;;728.80;;
54705;SDS011;40603;48.774;8.916;2022-08-19T09:43:43;761.00;;;678.25;;
54705;SDS011;40603;48.774;8.916;2022-08-19T09:46:10;720.17;;;647.65;;
54705;SDS011;40603;48.774;8.916;2022-08-19T09:48:36;790.88;;;711.85;;
54705;SDS011;40603;48.774;8.916;2022-08-19T09:51:03;784.42;;;705.03;;
54705;SDS011;40603;48.774;8.916;2022-08-19T09:53:29;821.15;;;740.45;;
54705;SDS011;40603;48.774;8.916;2022-08-19T09:55:55;886.33;;;790.58;;
54705;SDS011;40603;48.774;8.916;2022-08-19T09:58:20;846.90;;;760.55;;
54705;SDS011;40603;48.774;8.916;2022-08-19T10:00:45;810.67;;;728.13;;
54705;SDS011;40603;48.774;8.916;2022-08-19T10:03:11;807.50;;;722.22;;
54705;SDS011;40603;48.774;8.916;2022-08-19T10:05:36;821.67;;;729.63;;
54705;SDS011;40603;48.774;8.916;2022-08-19T10:08:15;645.58;;;583.28;;
54705;SDS011;40603;48.774;8.916;2022-08-19T10:10:44;763.63;;;684.97;;
54705;SDS011;40603;48.774;8.916;2022-08-19T10:13:09;634.63;;;570.95;;
54705;SDS011;40603;48.774;8.916;2022-08-19T10:15:35;593.65;;;539.80;;
54705;SDS011;40603;48.774;8.916;2022-08-19T10:18:04;598.20;;;542.80;;
54705;SDS011;40603;48.774;8.916;2022-08-19T10:20:29;651.28;;;585.42;;
54705;SDS011;40603;48.774;8.916;2022-08-19T10:22:55;551.03;;;500.85;;
54705;SDS011;40603;48.774;8.916;2022-08-19T10:25:20;441.90;;;407.40;;
54705;SDS011;40603;48.774;8.916;2022-08-19T10:27:45;550.22;;;498.13;;
54705;SDS011;40603;48.774;8.916;2022-08-19T10:30:11;481.00;;;441.77;;
54705;SDS011;40603;48.774;8.916;2022-08-19T10:32:37;438.17;;;403.17;;
54705;SDS011;40603;48.774;8.916;2022-08-19T10:35:03;503.08;;;459.73;;
54705;SDS011;40603;48.774;8.916;2022-08-19T10:39:58;211.15;;;195.55;;
54705;SDS011;40603;48.774;8.916;2022-08-19T10:42:23;204.15;;;189.32;;
54705;SDS011;40603;48.774;8.916;2022-08-19T10:44:49;204.52;;;189.65;;
54705;SDS011;40603;48.774;8.916;2022-08-19T10:47:14;240.25;;;222.63;;
54705;SDS011;40603;48.774;8.916;2022-08-19T10:49:40;362.13;;;332.83;;
54705;SDS011;40603;48.774;8.916;2022-08-19T10:52:25;213.88;;;198.02;;
54705;SDS011;40603;48.774;8.916;2022-08-19T10:55:01;290.75;;;269.10;;
54705;SDS011;40603;48.774;8.916;2022-08-19T10:57:45;225.52;;;208.48;;
54705;SDS011;40603;48.774;8.916;2022-08-19T11:00:11;121.15;;;113.18;;
54705;SDS011;40603;48.774;8.916;2022-08-19T11:02:36;119.82;;;112.10;;
54705;SDS011;40603;48.774;8.916;2022-08-19T11:05:02;103.50;;;96.35;;
54705;SDS011;40603;48.774;8.916;2022-08-19T11:07:27;86.88;;;80.95;;
54705;SDS011;40603;48.774;8.916;2022-08-19T11:09:53;80.03;;;74.88;;
54705;SDS011;40603;48.774;8.916;2022-08-19T11:12:18;61.53;;;57.63;;
54705;SDS011;40603;48.774;8.916;2022-08-19T11:14:44;66.35;;;61.90;;
54705;SDS011;40603;48.774;8.916;2022-08-19T11:17:09;79.28;;;74.13;;
54705;SDS011;40603;48.774;8.916;2022-08-19T11:19:38;77.88;;;73.03;;
54705;SDS011;40603;48.774;8.916;2022-08-19T11:22:06;75.68;;;70.80;;
54705;SDS011;40603;48.774;8.916;2022-08-19T11:24:34;67.10;;;62.63;;
54705;SDS011;40603;48.774;8.916;2022-08-19T11:27:01;94.82;;;88.75;;
54705;SDS011;40603;48.774;8.916;2022-08-19T11:29:29;70.80;;;66.00;;
54705;SDS011;40603;48.774;8.916;2022-08-19T11:31:55;90.80;;;84.90;;
54705;SDS011;40603;48.774;8.916;2022-08-19T11:34:22;84.85;;;79.53;;
54705;SDS011;40603;48.774;8.916;2022-08-19T11:36:49;71.05;;;66.25;;
54705;SDS011;40603;48.774;8.916;2022-08-19T11:39:16;89.13;;;83.65;;
54705;SDS011;40603;48.774;8.916;2022-08-19T11:41:43;60.08;;;56.05;;
54705;SDS011;40603;48.774;8.916;2022-08-19T11:44:08;60.63;;;56.92;;
54705;SDS011;40603;48.774;8.916;2022-08-19T11:46:34;51.50;;;47.95;;
54705;SDS011;40603;48.774;8.916;2022-08-19T11:49:02;60.47;;;56.80;;
54705;SDS011;40603;48.774;8.916;2022-08-19T11:51:28;38.22;;;35.70;;
54705;SDS011;40603;48.774;8.916;2022-08-19T11:53:54;38.92;;;36.47;;
54705;SDS011;40603;48.774;8.916;2022-08-19T11:56:21;48.63;;;45.58;;
54705;SDS011;40603;48.774;8.916;2022-08-19T11:58:46;28.52;;;26.58;;
54705;SDS011;40603;48.774;8.916;2022-08-19T12:01:13;33.13;;;30.73;;
54705;SDS011;40603;48.774;8.916;2022-08-19T12:03:43;27.45;;;25.13;;
54705;SDS011;40603;48.774;8.916;2022-08-19T12:06:11;28.85;;;26.73;;
54705;SDS011;40603;48.774;8.916;2022-08-19T12:08:39;20.05;;;18.40;;
54705;SDS011;40603;48.774;8.916;2022-08-19T12:11:05;22.25;;;20.52;;
54705;SDS011;40603;48.774;8.916;2022-08-19T12:13:33;9.65;;;8.68;;
54705;SDS011;40603;48.774;8.916;2022-08-19T12:15:58;11.77;;;6.53;;
54705;SDS011;40603;48.774;8.916;2022-08-19T12:18:24;5.97;;;5.43;;
54705;SDS011;40603;48.774;8.916;2022-08-19T12:20:50;6.93;;;5.68;;
54705;SDS011;40603;48.774;8.916;2022-08-19T12:23:15;10.85;;;5.68;;
54705;SDS011;40603;48.774;8.916;2022-08-19T12:25:45;9.75;;;5.82;;
54705;SDS011;40603;48.774;8.916;2022-08-19T12:28:15;10.80;;;7.05;;
54705;SDS011;40603;48.774;8.916;2022-08-19T12:30:44;9.37;;;5.50;;
54705;SDS011;40603;48.774;8.916;2022-08-19T12:33:09;8.48;;;6.15;;
54705;SDS011;40603;48.774;8.916;2022-08-19T12:35:34;6.85;;;6.07;;
54705;SDS011;40603;48.774;8.916;2022-08-19T12:38:01;6.88;;;6.18;;
54705;SDS011;40603;48.774;8.916;2022-08-19T12:40:27;10.65;;;6.22;;
54705;SDS011;40603;48.774;8.916;2022-08-19T12:42:53;14.88;;;5.38;;
54705;SDS011;40603;48.774;8.916;2022-08-19T12:45:19;7.55;;;5.15;;
54705;SDS011;40603;48.774;8.916;2022-08-19T12:47:44;7.97;;;5.32;;
54705;SDS011;40603;48.774;8.916;2022-08-19T12:50:11;10.25;;;5.32;;
54705;SDS011;40603;48.774;8.916;2022-08-19T12:52:36;12.52;;;5.70;;
54705;SDS011;40603;48.774;8.916;2022-08-19T12:55:02;7.65;;;4.88;;
54705;SDS011;40603;48.774;8.916;2022-08-19T12:57:30;5.15;;;4.50;;
54705;SDS011;40603;48.774;8.916;2022-08-19T13:00:00;9.80;;;4.53;;
54705;SDS011;40603;48.774;8.916;2022-08-19T13:02:37;6.70;;;4.63;;
54705;SDS011;40603;48.774;8.916;2022-08-19T13:05:03;5.07;;;4.55;;
54705;SDS011;40603;48.774;8.916;2022-08-19T13:07:31;8.88;;;4.80;;
54705;SDS011;40603;48.774;8.916;2022-08-19T13:09:56;7.35;;;4.78;;
54705;SDS011;40603;48.774;8.916;2022-08-19T13:12:22;5.70;;;4.85;;
54705;SDS011;40603;48.774;8.916;2022-08-19T13:14:49;5.93;;;4.95;;
54705;SDS011;40603;48.774;8.916;2022-08-19T13:17:14;7.70;;;4.53;;
54705;SDS011;40603;48.774;8.916;2022-08-19T13:19:40;6.60;;;4.90;;
54705;SDS011;40603;48.774;8.916;2022-08-19T13:22:05;6.03;;;4.30;;
54705;SDS011;40603;48.774;8.916;2022-08-19T13:24:30;5.15;;;4.60;;
54705;SDS011;40603;48.774;8.916;2022-08-19T13:26:56;6.65;;;5.75;;
54705;SDS011;40603;48.774;8.916;2022-08-19T13:29:21;9.93;;;6.18;;
54705;SDS011;40603;48.774;8.916;2022-08-19T13:32:05;8.05;;;6.80;;
54705;SDS011;40603;48.774;8.916;2022-08-19T13:34:49;6.70;;;6.10;;
54705;SDS011;40603;48.774;8.916;2022-08-19T13:37:14;10.05;;;6.35;;
54705;SDS011;40603;48.774;8.916;2022-08-19T13:39:40;7.40;;;6.65;;
54705;SDS011;40603;48.774;8.916;2022-08-19T13:42:05;7.38;;;6.13;;
54705;SDS011;40603;48.774;8.916;2022-08-19T13:44:32;8.20;;;7.28;;
54705;SDS011;40603;48.774;8.916;2022-08-19T13:47:01;12.38;;;11.00;;
54705;SDS011;40603;48.774;8.916;2022-08-19T13:49:34;9.43;;;8.57;;
54705;SDS011;40603;48.774;8.916;2022-08-19T13:52:00;24.25;;;9.35;;
54705;SDS011;40603;48.774;8.916;2022-08-19T13:54:26;10.10;;;9.00;;
54705;SDS011;40603;48.774;8.916;2022-08-19T13:56:51;9.93;;;7.90;;
54705;SDS011;40603;48.774;8.916;2022-08-19T13:59:17;11.48;;;10.48;;
54705;SDS011;40603;48.774;8.916;2022-08-19T14:01:42;11.38;;;10.32;;
54705;SDS011;40603;48.774;8.916;2022-08-19T14:04:08;10.50;;;9.50;;
54705;SDS011;40603;48.774;8.916;2022-08-19T14:06:33;11.50;;;8.88;;
54705;SDS011;40603;48.774;8.916;2022-08-19T14:08:59;8.90;;;7.93;;
54705;SDS011;40603;48.774;8.916;2022-08-19T14:11:24;7.43;;;6.80;;